Dades meteomassalio
Diari Summary for Abril 7, 2017 Units:  Metric    English   Both
« Previous Day
Next Day »
Diari Semanal Mensual Anual Personalitzat
  Maxima: Minima: Mijana:
Temperatura: -17.8 °C -15.6 °C -13.4 °C
Rosada: -17.8 °C -16.8 °C -15.9 °C
Humitat: Humidity % 56 % 73 %
Velocitat del vent: 0 km/h 0 km/h 1.3 km/h
Racha vent: 0 km/h - -
Vent:- - WSW
Pressio: 0 hPa 34533.8 hPa -
Pluja: 0 mm    
Historical Graphs
 
 
Tabular Data for Abril 7, 2017
Time Temperature Dew Point Pressure Wind Wind Speed Wind Gust Humidity Rainfall Rate (Hourly) solar Conditions
-17.8 °C -17.8 °C 0 hPa Calm     Humidity % 0 mm SolarRadiationWatts/m^2 W/m2 Conditions
00:04 -10.5 °C -15.3 °C 34533.8 hPa WSW 3.1 km/h 3.1 km/h 56 % 0 mm 0.0 W/m2 CLR
00:09 -10.7 °C -15.4 °C 34533.8 hPa Calm     56 % 0 mm 0.0 W/m2 CLR
00:14 -10.9 °C -15.5 °C 34544 hPa Calm     57 % 0 mm 0.0 W/m2 CLR
00:19 -11 °C -15.4 °C 34544 hPa Calm     58 % 0 mm 0.0 W/m2 CLR
00:24 -11 °C -15.4 °C 34544 hPa Calm     58 % 0 mm 0.0 W/m2 CLR
00:29 -11 °C -15.4 °C 34544 hPa Calm     58 % 0 mm 0.0 W/m2 CLR
00:34 -11 °C -15.4 °C 34544 hPa WSW 6 km/h 6 km/h 58 % 0 mm 0.0 W/m2 CLR
00:39 -10.9 °C -15.4 °C 34544 hPa WSW 7.7 km/h 7.7 km/h 58 % 0 mm 0.0 W/m2 CLR
00:44 -11 °C -15.3 °C 34544 hPa West 9 km/h 9 km/h 59 % 0 mm 0.0 W/m2 CLR
00:54 -11 °C -15.2 °C 34544 hPa West 9 km/h 9 km/h 60 % 0 mm 0.0 W/m2 CLR
00:59 -11 °C -15.2 °C 34544 hPa WSW 15 km/h 15 km/h 60 % 0 mm 0.0 W/m2 CLR
01:04 -11 °C -15.2 °C 34544 hPa Calm     60 % 0 mm 0.0 W/m2 CLR
01:09 -11.1 °C -15.3 °C 34544 hPa Calm     60 % 0 mm 0.0 W/m2 CLR
01:14 -11.3 °C -15.4 °C 34544 hPa Calm     60 % 0 mm 0.0 W/m2 CLR
01:19 -11.4 °C -15.5 °C 34544 hPa WSW 3.1 km/h 3.1 km/h 61 % 0 mm 0.0 W/m2 CLR
01:24 -11.6 °C -15.4 °C 34554.1 hPa WSW 9 km/h 9 km/h 63 % 0 mm 0.0 W/m2 CLR
01:29 -11.8 °C -15.4 °C 34554.1 hPa Calm     64 % 0 mm 0.0 W/m2 CLR
01:34 -11.9 °C -15.4 °C 34554.1 hPa Calm     65 % 0 mm 0.0 W/m2 CLR
01:35 -11.9 °C -15.4 °C 34554.1 hPa Calm     65 % 0 mm 0.0 W/m2 CLR
01:40 -12 °C -15.4 °C 34554.1 hPa Calm     66 % 0 mm 0.0 W/m2 CLR
01:45 -12.1 °C -15.4 °C 34554.1 hPa Calm     66 % 0 mm 0.0 W/m2 CLR
01:50 -12.1 °C -15.4 °C 34554.1 hPa Calm     67 % 0 mm 0.0 W/m2 CLR
01:55 -12.1 °C -15.4 °C 34554.1 hPa SW 3.1 km/h 3.1 km/h 67 % 0 mm 0.0 W/m2 CLR
02:00 -12.1 °C -15.3 °C 34567.7 hPa SW 9 km/h 9 km/h 67 % 0 mm 0.0 W/m2 CLR
02:05 -12.2 °C -15.4 °C 34567.7 hPa Calm     67 % 0 mm 0.0 W/m2 CLR
02:10 -12.3 °C -15.4 °C 34554.1 hPa Calm     68 % 0 mm 0.0 W/m2 CLR
02:15 -12.6 °C -15.5 °C 34567.7 hPa Calm     69 % 0 mm 0.0 W/m2 CLR
02:20 -12.7 °C -15.5 °C 34567.7 hPa Calm     70 % 0 mm 0.0 W/m2 CLR
02:25 -12.7 °C -15.5 °C 34567.7 hPa West 5.1 km/h 5.1 km/h 71 % 0 mm 0.0 W/m2 CLR
02:30 -12.6 °C -15.3 °C 34567.7 hPa West 9 km/h 9 km/h 71 % 0 mm 0.0 W/m2 CLR
02:35 -12.2 °C -15.4 °C 34567.7 hPa Calm     68 % 0 mm 0.0 W/m2 CLR
02:40 -12.3 °C -15.5 °C 34567.7 hPa Calm     67 % 0 mm 0.0 W/m2 CLR
02:45 -12.4 °C -15.6 °C 34567.7 hPa Calm     68 % 0 mm 0.0 W/m2 CLR
02:50 -12.7 °C -15.6 °C 34567.7 hPa Calm     70 % 0 mm 0.0 W/m2 CLR
02:55 -12.9 °C -15.7 °C 34567.7 hPa Calm     71 % 0 mm 0.0 W/m2 CLR
03:00 -13.1 °C -15.7 °C 34567.7 hPa Calm     72 % 0 mm 0.0 W/m2 CLR
03:05 -13.2 °C -15.7 °C 34567.7 hPa Calm     73 % 0 mm 0.0 W/m2 CLR
03:10 -13.4 °C -15.8 °C 34567.7 hPa Calm   0.5 km/h 74 % 0 mm 0.0 W/m2 CLR
03:15 -13.5 °C -15.8 °C 34567.7 hPa Calm     75 % 0 mm 0.0 W/m2 CLR
03:20 -13.6 °C -15.8 °C 34567.7 hPa Calm     76 % 0 mm 0.0 W/m2 CLR
03:25 -13.7 °C -15.9 °C 34567.7 hPa Calm     76 % 0 mm 0.0 W/m2 CLR
03:30 -13.7 °C -15.8 °C 34567.7 hPa Calm     77 % 0 mm 0.0 W/m2 CLR
03:35 -13.8 °C -15.9 °C 34567.7 hPa Calm     77 % 0 mm 0.0 W/m2 CLR
03:40 -13.6 °C -15.6 °C 34554.1 hPa West 15 km/h 15 km/h 78 % 0 mm 0.0 W/m2 CLR
03:45 -13.1 °C -15.5 °C 34567.7 hPa WSW 9 km/h 9 km/h 74 % 0 mm 0.0 W/m2 CLR
03:50 -13.1 °C -15.7 °C 34567.7 hPa Calm     72 % 0 mm 0.0 W/m2 CLR
03:55 -13.4 °C -15.9 °C 34567.7 hPa Calm     73 % 0 mm 0.0 W/m2 CLR
04:10 -14.1 °C -16.1 °C 34567.7 hPa Calm     78 % 0 mm 0.0 W/m2 CLR
04:15 -14.1 °C -16 °C 34567.7 hPa Calm     79 % 0 mm 0.0 W/m2 CLR
04:20 -14.1 °C -16.1 °C 34567.7 hPa Calm     78 % 0 mm 0.0 W/m2 CLR
04:25 -14.1 °C -16.1 °C 34567.7 hPa Calm     78 % 0 mm 0.0 W/m2 CLR
04:31 -14.1 °C -16 °C 34567.7 hPa Calm     79 % 0 mm 0.0 W/m2 CLR
04:36 -14.2 °C -16.1 °C 34567.7 hPa Calm     79 % 0 mm 0.0 W/m2 CLR
04:41 -14.2 °C -16.1 °C 34567.7 hPa Calm     79 % 0 mm 0.0 W/m2 CLR
04:46 -14.3 °C -16.2 °C 34567.7 hPa Calm     79 % 0 mm 0.0 W/m2 CLR
04:51 -14.4 °C -16.2 °C 34567.7 hPa Calm     80 % 0 mm 0.0 W/m2 CLR
04:56 -14.4 °C -16.2 °C 34567.7 hPa Calm     80 % 0 mm 0.0 W/m2 CLR
05:01 -14.5 °C -16.2 °C 34567.7 hPa Calm     80 % 0 mm 0.0 W/m2 CLR
05:06 -14.5 °C -16.3 °C 34567.7 hPa Calm     80 % 0 mm 0.0 W/m2 CLR
05:11 -14.6 °C -16.2 °C 34567.7 hPa Calm     81 % 0 mm 0.0 W/m2 CLR
05:16 -14.6 °C -16.3 °C 34567.7 hPa Calm     81 % 0 mm 0.0 W/m2 CLR
05:21 -14.7 °C -16.3 °C 34577.8 hPa Calm     81 % 0 mm 0.0 W/m2 CLR
05:26 -14.8 °C -16.4 °C 34577.8 hPa Calm     81 % 0 mm 0.0 W/m2 CLR
05:31 -14.8 °C -16.4 °C 34577.8 hPa Calm     82 % 0 mm 0.0 W/m2 CLR
05:36 -14.8 °C -16.4 °C 34577.8 hPa Calm     82 % 0 mm 0.0 W/m2 CLR
05:41 -14.9 °C -16.4 °C 34577.8 hPa Calm     82 % 0 mm 0.0 W/m2 CLR
05:46 -14.9 °C -16.4 °C 34577.8 hPa Calm     83 % 0 mm 0.0 W/m2 CLR
05:51 -14.9 °C -16.4 °C 34577.8 hPa Calm     83 % 0 mm 0.0 W/m2 CLR
05:56 -14.9 °C -16.4 °C 34577.8 hPa Calm     83 % 0 mm 0.0 W/m2 CLR
06:01 -14.9 °C -16.4 °C 34577.8 hPa Calm     83 % 0 mm 0.0 W/m2 CLR
06:06 -15.1 °C -16.5 °C 34577.8 hPa Calm     83 % 0 mm 0.0 W/m2 CLR
06:11 -15.1 °C -16.5 °C 34577.8 hPa Calm     83 % 0 mm 0.0 W/m2 CLR
06:16 -15.1 °C -16.6 °C 34577.8 hPa Calm     83 % 0 mm 0.0 W/m2 CLR
06:21 -15.1 °C -16.5 °C 34577.8 hPa Calm     84 % 0 mm 0.0 W/m2 CLR
06:26 -15.1 °C -16.4 °C 34577.8 hPa Calm     84 % 0 mm 0.0 W/m2 CLR
06:31 -15.1 °C -16.4 °C 34577.8 hPa Calm     84 % 0 mm 0.0 W/m2 CLR
06:36 -15.1 °C -16.4 °C 34577.8 hPa Calm     84 % 0 mm 0.0 W/m2 CLR
06:41 -15.1 °C -16.6 °C 34577.8 hPa Calm     83 % 0 mm 0.0 W/m2 CLR
06:46 -15.2 °C -16.6 °C 34577.8 hPa Calm     84 % 0 mm 0.0 W/m2 CLR
06:51 -15.2 °C -16.6 °C 34577.8 hPa Calm     84 % 0 mm 0.0 W/m2 CLR
06:56 -15.3 °C -16.6 °C 34577.8 hPa Calm     84 % 0 mm 0.0 W/m2 CLR
07:01 -15.3 °C -16.7 °C 34577.8 hPa Calm     84 % 0 mm 0.0 W/m2 CLR
07:06 -15.4 °C -16.8 °C 34591.4 hPa Calm     84 % 0 mm 0.0 W/m2 CLR
07:11 -15.4 °C -16.7 °C 34591.4 hPa Calm     85 % 0 mm 0.0 W/m2 CLR
07:16 -15.5 °C -16.8 °C 34591.4 hPa Calm     85 % 0 mm 0.0 W/m2 CLR
07:21 -15.6 °C -16.8 °C 34591.4 hPa Calm     85 % 0 mm 0.0 W/m2 CLR
Lo Temps de Massalio
Compliments of Weather Underground - 512 kb